This is the latest recevied weather packets stored in our database for station/object KD7CIH. If no packets are shown the sender has not sent any weather packets the latest 10 day(s).
| Time | Temp. | Humidity | Pressure | Rain* | Wind** | Luminosity | Snow |
|---|---|---|---|---|---|---|---|
| 1787688276 | 27.22° C | 25% | 1022.1 hPa | 0 mm | - | - | - |
| 1787687977 | 27.22° C | 26% | 1022.2 hPa | 0 mm | - | - | - |
| 1787687674 | 27.22° C | 25% | 1022.3 hPa | 0 mm | - | - | - |
| 1787687376 | 27.22° C | 27% | 1022.4 hPa | 0 mm | - | - | - |
| 1787687075 | 27.22° C | 27% | 1022.4 hPa | 0 mm | - | - | - |
| 1787686777 | 26.67° C | 26% | 1022.4 hPa | 0 mm | - | - | - |
| 1787686604 | 26.67° C | 27% | 1022.7 hPa | 0 mm | - | - | - |
| 1787686177 | 26.67° C | 26% | 1022.7 hPa | 0 mm | - | - | - |
| 1787685878 | 26.67° C | 27% | 1022.8 hPa | 0 mm | - | - | - |
| 1787685575 | 26.67° C | 28% | 1022.7 hPa | 0 mm | - | - | - |
| 1787685402 | 26.67° C | 27% | 1022.8 hPa | 0 mm | - | - | - |
| 1787684975 | 26.67° C | 27% | 1022.8 hPa | 0 mm | - | - | - |
| 1787684674 | 26.67° C | 29% | 1022.8 hPa | 0 mm | - | - | - |
| 1787684373 | 26.11° C | 30% | 1022.8 hPa | 0 mm | - | - | - |
| 1787684073 | 26.11° C | 30% | 1023 hPa | 0 mm | - | - | - |
| 1787683903 | 26.11° C | 30% | 1023.1 hPa | 0 mm | - | - | - |
| 1787683474 | 25.56° C | 33% | 1023.1 hPa | 0 mm | - | - | - |
| 1787683300 | 26.11° C | 32% | 1023.1 hPa | 0 mm | - | - | - |
| 1787682875 | 26.11° C | 31% | 1023.3 hPa | 0 mm | - | - | - |
| 1787682702 | 25.56° C | 33% | 1023.3 hPa | 0 mm | - | - | - |
| 1787682273 | 25.56° C | 33% | 1023.3 hPa | 0 mm | - | - | - |
| 1787681973 | 25.56° C | 31% | 1023.4 hPa | 0 mm | - | - | - |
| 1787681801 | 25° C | 34% | 1023.4 hPa | 0 mm | - | - | - |
| 1787681502 | 25° C | 34% | 1023.4 hPa | 0 mm | - | - | - |
| 1787681074 | 25° C | 33% | 1023.5 hPa | 0 mm | - | - | - |
* Rain latest hour (hover to see other rain measurements)
** Current wind speed in m/s (hover to see current wind gust speed)